Saint Anne, Illinois
Current Conditions -  °F | °C
As of 5:15 PM on Thursday 27 Nov 2014 (Local Time) from KRZL Reporting Station
Overcast Overcast  
Wind Chill: 18°   Ceiling: 3600
Heat Index: 27°   Visibility: 10mi
Dew Point: 21°   Wind: 8mph
Humidity: 80%   Direction: 310°NW
Pressure: 30.39"   Gusts: NA
Location:  41.03°N, 87.71°W
Report Text: KRZL 272315Z AUTO 31007KT 10SM OVC036 M03/M06 A3039 RMK AO2
Loading
Personal Weather Stations






























Interactive Weather Map New forecast layout! Learn more

10-Day Weather Forecast

Advertisements
Track Severe Weather on mobile